Terminal Aerodrome Forecast
Issued by NWS Memphis, TN

Home | Current Version | Previous Version | Text Only | Print | Product List | Glossary On
Versions: 1 2 3 4 5 6 7 8 9 10 11 12 13 14 15 16 17 18 19 20 21 22 23 24 25 26 27 28 29 30 31
000
FTUS44 KMEG 300704 AAA
TAFMEM
TAF AMD
KMEM 300704Z 3007/3106 19012G18KT P6SM VCSH FEW050 BKN100
      WS020/19050KT
      TEMPO 3008/3010 VRB20G30KT 6SM -SHRA BR SCT015 BKN035
     FM301100 19012G18KT P6SM VCSH SCT010 OVC025 WS020/20055KT
     FM301600 20015G22KT P6SM VCTS SCT025CB BKN040
     FM302000 21013G20KT P6SM VCSH SCT040 BKN150
     FM310000 22009KT P6SM BKN040=

USA.gov is the U.S. government's official web portal to all federal, state and local government web resources and services.